Wybark, Oklahoma
Current Conditions -  °F | °C
As of 11:49 PM on Wednesday 17 Dec 2014 (Local Time) from KMKO Reporting Station
Overcast Overcast  
Wind Chill: 32°   Ceiling: 3100
Heat Index: 36°   Visibility: 10mi
Dew Point: 34°   Wind: 5mph
Humidity: 93%   Direction: 130°SE
Pressure: 30.22"   Gusts: NA
Location:  35.6818°N, 95.3578°W
Report Text: KMKO 180549Z AUTO 13004KT 10SM SCT011 OVC031 02/01 A3022 RMK AO2
Loading
Personal Weather Stations






























Interactive Weather Map New forecast layout! Learn more

10-Day Weather Forecast

Advertisements
Track Severe Weather on mobile